createdAt,value
2023-03-29T00:01:36.702Z,5.03
2023-03-29T00:04:06.529Z,3.60
2023-03-29T00:06:33.979Z,3.57
2023-03-29T00:09:01.967Z,2.87
2023-03-29T00:11:28.573Z,3.50
2023-03-29T00:13:55.417Z,3.90
2023-03-29T00:16:23.507Z,3.27
2023-03-29T00:18:50.011Z,3.57
2023-03-29T00:21:16.518Z,3.07
2023-03-29T00:23:44.373Z,2.90
2023-03-29T00:26:11.760Z,2.60
2023-03-29T00:28:38.238Z,3.57
2023-03-29T00:31:11.074Z,2.50
2023-03-29T00:33:38.302Z,3.47
2023-03-29T00:36:06.126Z,2.97
2023-03-29T00:38:33.413Z,3.93
2023-03-29T00:41:00.079Z,3.30
2023-03-29T00:43:26.999Z,2.70
2023-03-29T00:45:53.743Z,2.70
2023-03-29T00:48:24.354Z,2.67
2023-03-29T00:50:54.358Z,3.30
2023-03-29T00:53:23.702Z,3.23
2023-03-29T00:56:12.347Z,3.23
2023-03-29T00:58:47.877Z,3.33
2023-03-29T01:01:22.103Z,2.40
2023-03-29T01:03:54.348Z,3.90
2023-03-29T01:06:29.036Z,3.60
2023-03-29T01:09:01.993Z,3.27
2023-03-29T01:11:39.152Z,3.00
2023-03-29T01:14:18.267Z,2.67
2023-03-29T01:16:46.014Z,4.03
2023-03-29T01:19:18.221Z,3.10
2023-03-29T01:21:46.157Z,3.63
2023-03-29T01:24:46.250Z,2.63
2023-03-29T01:27:26.391Z,3.17
2023-03-29T01:29:57.885Z,2.83
2023-03-29T01:32:47.927Z,3.60
2023-03-29T01:35:50.920Z,3.47
2023-03-29T01:38:26.431Z,3.00
2023-03-29T01:40:52.974Z,3.00
2023-03-29T01:43:36.579Z,3.87
2023-03-29T01:46:08.776Z,3.10
2023-03-29T01:48:56.694Z,4.40
2023-03-29T01:51:30.691Z,3.93
2023-03-29T01:54:06.126Z,2.60
2023-03-29T01:56:37.839Z,2.93
2023-03-29T01:59:11.257Z,2.70
2023-03-29T02:01:43.732Z,3.60
2023-03-29T02:04:14.212Z,3.40
2023-03-29T02:06:41.928Z,3.60
2023-03-29T02:09:09.102Z,3.33
2023-03-29T02:11:36.276Z,3.77
2023-03-29T02:14:03.484Z,3.00
2023-03-29T02:16:35.850Z,3.73
2023-03-29T02:19:02.868Z,2.13
2023-03-29T02:22:04.215Z,2.93
2023-03-29T02:24:32.877Z,3.30
2023-03-29T02:27:01.186Z,3.07
2023-03-29T02:29:27.769Z,3.43
2023-03-29T02:32:10.009Z,3.50
2023-03-29T02:34:47.721Z,5.57
2023-03-29T02:37:18.947Z,2.70
2023-03-29T02:39:49.784Z,3.47
2023-03-29T02:42:20.301Z,3.70
2023-03-29T02:44:49.608Z,4.70
2023-03-29T02:47:21.516Z,4.07
2023-03-29T02:49:48.240Z,3.57
2023-03-29T02:52:22.251Z,3.63
2023-03-29T02:54:51.341Z,4.03
2023-03-29T02:57:22.055Z,3.07
2023-03-29T02:59:48.769Z,4.57
2023-03-29T03:02:17.591Z,3.47
2023-03-29T03:04:44.705Z,3.73
2023-03-29T03:07:11.425Z,3.77
2023-03-29T03:09:37.895Z,3.93
2023-03-29T03:12:04.373Z,3.23
2023-03-29T03:14:30.851Z,2.57
2023-03-29T03:16:58.097Z,3.80
2023-03-29T03:19:24.918Z,3.43
2023-03-29T03:21:51.757Z,3.53
2023-03-29T03:24:18.460Z,3.50
2023-03-29T03:26:46.354Z,3.53
2023-03-29T03:29:14.410Z,3.07
2023-03-29T03:31:41.361Z,3.73
2023-03-29T03:34:11.086Z,2.93
2023-03-29T03:36:37.687Z,4.03
2023-03-29T03:39:07.132Z,2.80
2023-03-29T03:41:34.658Z,4.00
2023-03-29T03:44:02.456Z,3.43
2023-03-29T03:46:29.800Z,3.27
2023-03-29T03:48:56.677Z,3.10
2023-03-29T03:51:23.336Z,3.13
2023-03-29T03:53:50.141Z,4.03
2023-03-29T03:56:16.785Z,3.70
2023-03-29T03:58:43.806Z,4.23
2023-03-29T04:01:10.266Z,3.80
2023-03-29T04:03:37.933Z,4.53
2023-03-29T04:06:05.382Z,3.60
2023-03-29T04:08:32.061Z,2.83
2023-03-29T04:10:59.731Z,3.27
2023-03-29T04:13:27.528Z,3.30
2023-03-29T04:15:55.754Z,3.43
2023-03-29T04:18:24.023Z,3.20
2023-03-29T04:20:51.546Z,3.70
2023-03-29T04:23:18.373Z,3.57
2023-03-29T04:25:45.007Z,5.00
2023-03-29T04:28:12.780Z,2.30
2023-03-29T04:30:39.790Z,4.37
2023-03-29T04:33:06.437Z,3.30
2023-03-29T04:35:33.602Z,3.63
2023-03-29T04:38:00.281Z,3.13
2023-03-29T04:40:26.806Z,3.10
2023-03-29T04:42:54.422Z,3.27
2023-03-29T04:45:21.401Z,4.00
2023-03-29T04:47:47.989Z,4.13
2023-03-29T04:50:14.582Z,3.00
2023-03-29T04:52:41.364Z,3.40
2023-03-29T04:55:08.689Z,3.97
2023-03-29T04:57:35.331Z,3.47
2023-03-29T05:00:02.213Z,3.33
2023-03-29T05:02:32.262Z,4.10
2023-03-29T05:04:58.947Z,3.40
2023-03-29T05:07:25.414Z,3.33
2023-03-29T05:09:52.028Z,4.07
2023-03-29T05:12:18.572Z,2.97
2023-03-29T05:14:45.006Z,3.27
2023-03-29T05:17:11.416Z,3.23
2023-03-29T05:19:38.411Z,3.37
2023-03-29T05:22:05.052Z,3.20
2023-03-29T05:24:31.817Z,3.77
2023-03-29T05:26:58.452Z,3.37
2023-03-29T05:29:25.031Z,4.23
2023-03-29T05:31:52.533Z,3.20
2023-03-29T05:34:21.516Z,3.57
2023-03-29T05:36:48.992Z,4.07
2023-03-29T05:39:15.512Z,4.03
2023-03-29T05:41:42.054Z,3.87
2023-03-29T05:44:08.644Z,3.77
2023-03-29T05:46:35.265Z,3.17
2023-03-29T05:49:02.563Z,3.97
2023-03-29T05:51:29.056Z,3.73
2023-03-29T05:53:55.828Z,3.23
2023-03-29T05:56:22.837Z,3.27
2023-03-29T05:58:53.734Z,3.20
2023-03-29T06:01:22.556Z,3.33
2023-03-29T06:03:49.576Z,4.10
2023-03-29T06:06:16.685Z,4.47
2023-03-29T06:08:44.309Z,4.70
2023-03-29T06:11:13.264Z,4.27
2023-03-29T06:13:39.808Z,4.10
2023-03-29T06:16:07.158Z,3.90
2023-03-29T06:18:34.112Z,2.80
2023-03-29T06:21:02.848Z,3.23
2023-03-29T06:23:31.644Z,3.00
2023-03-29T06:26:00.664Z,3.80
2023-03-29T06:28:27.476Z,4.20
2023-03-29T06:30:56.442Z,3.90
2023-03-29T06:33:24.225Z,3.33
2023-03-29T06:35:51.116Z,4.43
2023-03-29T06:38:17.620Z,3.37
2023-03-29T06:40:44.787Z,4.37
2023-03-29T06:43:11.965Z,4.17
2023-03-29T06:45:39.368Z,6.10
2023-03-29T06:48:08.036Z,4.57
2023-03-29T06:50:35.425Z,4.00
2023-03-29T06:53:02.280Z,4.07
2023-03-29T06:55:28.804Z,3.70
2023-03-29T06:57:56.602Z,3.80
2023-03-29T07:00:30.734Z,3.83
2023-03-29T07:02:59.651Z,4.00
2023-03-29T07:05:27.369Z,4.53
2023-03-29T07:07:59.854Z,3.87
2023-03-29T07:10:32.937Z,3.90
2023-03-29T07:13:03.464Z,4.40
2023-03-29T07:15:30.014Z,4.03
2023-03-29T07:17:57.621Z,3.90
2023-03-29T07:20:24.978Z,4.00
2023-03-29T07:22:51.927Z,4.37
2023-03-29T07:25:22.589Z,4.17
2023-03-29T07:27:49.715Z,4.53
2023-03-29T07:30:19.366Z,3.80
2023-03-29T07:32:46.803Z,4.60
2023-03-29T07:35:15.156Z,4.10
2023-03-29T07:37:42.847Z,4.90
2023-03-29T07:40:24.467Z,4.20
2023-03-29T07:42:54.291Z,4.77
2023-03-29T07:45:28.566Z,4.30
2023-03-29T07:47:59.817Z,3.80
2023-03-29T07:50:27.597Z,4.30
2023-03-29T07:52:54.773Z,5.43
2023-03-29T07:55:21.965Z,4.23
2023-03-29T07:57:49.758Z,5.30
2023-03-29T08:00:17.391Z,3.87
2023-03-29T08:02:45.310Z,4.57
2023-03-29T08:05:23.142Z,4.10
2023-03-29T08:07:56.268Z,4.87
2023-03-29T08:10:23.080Z,4.50
2023-03-29T08:12:50.413Z,5.40
2023-03-29T08:15:17.109Z,3.80
2023-03-29T08:17:43.915Z,5.93
2023-03-29T08:20:13.812Z,4.20
2023-03-29T08:22:40.387Z,4.40
2023-03-29T08:25:07.569Z,4.27
2023-03-29T08:27:35.240Z,4.83
2023-03-29T08:30:01.638Z,4.30
2023-03-29T08:32:28.202Z,5.27
2023-03-29T08:34:55.123Z,4.73
2023-03-29T08:37:21.899Z,4.90
2023-03-29T08:39:49.640Z,5.87
2023-03-29T08:42:26.596Z,3.73
2023-03-29T08:45:12.686Z,5.43
2023-03-29T08:47:59.717Z,5.07
2023-03-29T08:50:44.545Z,4.93
2023-03-29T08:53:17.690Z,5.63
2023-03-29T08:55:46.526Z,5.67
2023-03-29T08:58:17.456Z,5.37
2023-03-29T09:00:54.048Z,6.23
2023-03-29T09:03:26.599Z,5.17
2023-03-29T09:05:59.904Z,6.17
2023-03-29T09:08:26.649Z,5.30
2023-03-29T09:11:02.935Z,5.77
2023-03-29T09:13:54.880Z,4.83
2023-03-29T09:17:15.765Z,6.60
2023-03-29T09:20:08.156Z,6.03
2023-03-29T09:23:19.692Z,5.27
2023-03-29T09:26:15.811Z,5.73
2023-03-29T09:29:05.149Z,5.40
2023-03-29T09:31:37.259Z,5.87
2023-03-29T09:34:14.448Z,5.17
2023-03-29T09:36:47.554Z,5.80
2023-03-29T09:39:16.628Z,6.13
2023-03-29T09:42:05.451Z,6.80
2023-03-29T09:44:44.456Z,5.27
2023-03-29T09:47:35.076Z,5.67
2023-03-29T09:50:23.144Z,5.70
2023-03-29T09:52:54.389Z,5.47
2023-03-29T09:55:25.273Z,6.20
2023-03-29T09:57:52.170Z,6.10
2023-03-29T10:00:19.667Z,5.67
2023-03-29T10:02:54.636Z,7.20
2023-03-29T10:05:24.342Z,6.63
2023-03-29T10:07:53.718Z,6.33
2023-03-29T10:10:28.543Z,5.80
2023-03-29T10:13:00.957Z,7.10
2023-03-29T10:15:30.596Z,6.00
2023-03-29T10:18:03.645Z,7.37
2023-03-29T10:20:30.718Z,6.50
2023-03-29T10:22:59.100Z,6.53
2023-03-29T10:25:32.795Z,5.67
2023-03-29T10:28:16.330Z,5.93
2023-03-29T10:30:47.697Z,6.33
2023-03-29T10:33:21.150Z,6.10
2023-03-29T10:35:48.743Z,7.37
2023-03-29T10:38:22.306Z,5.60
2023-03-29T10:40:51.769Z,7.50
2023-03-29T10:43:35.671Z,6.30
2023-03-29T10:46:13.143Z,6.40
2023-03-29T10:48:46.144Z,5.63
2023-03-29T10:51:15.091Z,6.17
2023-03-29T10:53:42.375Z,6.40
2023-03-29T10:56:46.690Z,6.63
2023-03-29T10:59:32.723Z,6.57
2023-03-29T11:02:29.353Z,6.00
2023-03-29T11:05:20.298Z,7.07
2023-03-29T11:08:05.761Z,6.97
2023-03-29T11:11:34.178Z,6.37
2023-03-29T11:14:28.049Z,7.07
2023-03-29T11:17:10.234Z,7.70
2023-03-29T11:19:56.688Z,5.80
2023-03-29T11:22:37.962Z,7.03
2023-03-29T11:25:32.070Z,7.37
2023-03-29T11:28:09.608Z,7.47
2023-03-29T11:31:03.086Z,7.97
2023-03-29T11:33:36.138Z,7.17
2023-03-29T11:36:06.041Z,7.83
2023-03-29T11:38:39.669Z,7.63
2023-03-29T11:41:22.741Z,8.57
2023-03-29T11:43:55.116Z,7.83
2023-03-29T11:46:41.818Z,6.90
2023-03-29T11:49:11.901Z,7.87
2023-03-29T11:51:42.671Z,9.10
2023-03-29T11:54:20.755Z,7.50
2023-03-29T11:56:54.370Z,8.23
2023-03-29T11:59:56.741Z,8.13
2023-03-29T12:02:41.068Z,8.67
2023-03-29T12:05:42.911Z,7.57
2023-03-29T12:08:15.299Z,7.87
2023-03-29T12:11:06.768Z,8.97
2023-03-29T12:13:42.895Z,8.43
2023-03-29T12:16:23.009Z,8.00
2023-03-29T12:18:54.230Z,8.53
2023-03-29T12:21:26.792Z,7.77
2023-03-29T12:23:53.556Z,7.40
2023-03-29T12:26:40.450Z,7.93
2023-03-29T12:29:07.392Z,7.97
2023-03-29T12:32:12.873Z,8.37
2023-03-29T12:35:03.307Z,7.70
2023-03-29T12:37:39.976Z,7.43
2023-03-29T12:40:16.620Z,7.67
2023-03-29T12:42:48.167Z,7.90
2023-03-29T12:45:27.387Z,7.30
2023-03-29T12:47:55.785Z,8.50
2023-03-29T12:50:28.523Z,8.33
2023-03-29T12:53:23.729Z,8.70
2023-03-29T12:55:56.692Z,8.83
2023-03-29T12:58:29.806Z,9.17
2023-03-29T13:01:27.515Z,9.07
2023-03-29T13:03:59.968Z,9.03
2023-03-29T13:06:54.216Z,7.97
2023-03-29T13:09:30.026Z,8.50
2023-03-29T13:12:11.679Z,8.17
2023-03-29T13:14:43.710Z,7.77
2023-03-29T13:17:22.519Z,8.57
2023-03-29T13:20:09.331Z,8.50
2023-03-29T13:22:53.363Z,8.50
2023-03-29T13:25:43.754Z,8.70
2023-03-29T13:28:27.834Z,7.57
2023-03-29T13:31:22.864Z,8.23
2023-03-29T13:34:03.501Z,8.53
2023-03-29T13:36:39.233Z,8.50
2023-03-29T13:39:07.246Z,9.23
2023-03-29T13:41:47.635Z,8.47
2023-03-29T13:44:25.553Z,7.73
2023-03-29T13:47:04.943Z,8.43
2023-03-29T13:49:34.038Z,7.40
2023-03-29T13:52:03.207Z,8.33
2023-03-29T13:54:42.409Z,7.77
2023-03-29T13:57:15.784Z,6.93
2023-03-29T14:00:02.558Z,6.90
2023-03-29T14:02:40.831Z,7.63
2023-03-29T14:05:12.810Z,7.03
2023-03-29T14:07:44.517Z,6.97
2023-03-29T14:10:17.443Z,7.17
2023-03-29T14:12:44.264Z,7.10
2023-03-29T14:15:23.833Z,7.27
2023-03-29T14:17:54.950Z,6.27
2023-03-29T14:20:21.606Z,6.47
2023-03-29T14:22:48.857Z,7.23
2023-03-29T14:25:18.429Z,6.17
2023-03-29T14:27:45.011Z,6.63
2023-03-29T14:30:37.820Z,7.60
2023-03-29T14:33:05.303Z,6.30
2023-03-29T14:35:36.337Z,6.57
2023-03-29T14:38:03.777Z,6.60
2023-03-29T14:40:30.844Z,6.13
2023-03-29T14:43:00.036Z,7.40
2023-03-29T14:45:27.069Z,7.23
2023-03-29T14:47:53.745Z,6.73
2023-03-29T14:50:31.098Z,5.97
2023-03-29T14:52:59.881Z,6.77
2023-03-29T14:55:27.236Z,5.47
2023-03-29T14:57:55.385Z,6.20
2023-03-29T15:00:43.002Z,5.90
2023-03-29T15:03:16.373Z,5.87
2023-03-29T15:05:51.923Z,5.30
2023-03-29T15:08:34.561Z,5.77
2023-03-29T15:11:01.871Z,6.07
2023-03-29T15:13:29.874Z,4.70
2023-03-29T15:16:03.844Z,5.40
2023-03-29T15:18:39.830Z,5.33
2023-03-29T15:21:12.867Z,6.00
2023-03-29T15:23:55.073Z,5.50
2023-03-29T15:26:31.124Z,5.40
2023-03-29T15:29:23.209Z,6.23
2023-03-29T15:31:58.993Z,5.83
2023-03-29T15:34:33.286Z,5.10
2023-03-29T15:37:01.888Z,5.60
2023-03-29T15:39:29.480Z,5.23
2023-03-29T15:41:57.235Z,5.40
2023-03-29T15:44:29.047Z,5.00
2023-03-29T15:46:57.797Z,5.67
2023-03-29T15:49:25.045Z,4.47
2023-03-29T15:51:54.002Z,5.07
2023-03-29T15:54:21.918Z,4.33
2023-03-29T15:56:55.320Z,5.20
2023-03-29T15:59:22.465Z,4.90
2023-03-29T16:01:49.220Z,5.33
2023-03-29T16:04:18.399Z,4.60
2023-03-29T16:06:46.952Z,4.70
2023-03-29T16:09:13.398Z,5.13
2023-03-29T16:11:41.633Z,5.17
2023-03-29T16:14:23.131Z,4.73
2023-03-29T16:16:53.031Z,5.97
2023-03-29T16:19:20.485Z,5.13
2023-03-29T16:21:48.110Z,5.20
2023-03-29T16:24:21.883Z,4.80
2023-03-29T16:26:48.696Z,4.43
2023-03-29T16:29:17.292Z,5.63
2023-03-29T16:31:48.715Z,5.70
2023-03-29T16:34:19.206Z,6.37
2023-03-29T16:36:47.404Z,5.77
2023-03-29T16:39:14.906Z,4.93
2023-03-29T16:41:42.516Z,5.07
2023-03-29T16:44:15.305Z,5.33
2023-03-29T16:46:42.079Z,4.53
2023-03-29T16:49:13.988Z,5.77
2023-03-29T16:51:40.529Z,5.50
2023-03-29T16:54:07.743Z,5.93
2023-03-29T16:56:36.767Z,4.50
2023-03-29T16:59:03.623Z,4.27
2023-03-29T17:01:30.257Z,4.80
2023-03-29T17:03:57.208Z,4.90
2023-03-29T17:06:23.924Z,4.57
2023-03-29T17:08:50.636Z,4.47
2023-03-29T17:11:17.406Z,5.67
2023-03-29T17:13:44.603Z,5.00
2023-03-29T17:16:11.212Z,5.57
2023-03-29T17:18:37.897Z,4.33
2023-03-29T17:21:08.110Z,5.60
2023-03-29T17:23:34.680Z,4.50
2023-03-29T17:26:02.145Z,5.67
2023-03-29T17:28:29.305Z,4.30
2023-03-29T17:30:55.840Z,5.70
2023-03-29T17:33:25.832Z,5.33
2023-03-29T17:35:53.064Z,5.27
2023-03-29T17:38:19.668Z,5.33
2023-03-29T17:40:53.026Z,4.40
2023-03-29T17:43:19.475Z,4.80
2023-03-29T17:45:46.346Z,5.37
2023-03-29T17:48:13.230Z,6.07
2023-03-29T17:50:39.773Z,5.50
2023-03-29T17:53:06.591Z,6.23
2023-03-29T17:55:33.018Z,4.90
2023-03-29T17:57:59.465Z,5.37
2023-03-29T18:00:26.036Z,5.47
2023-03-29T18:02:52.532Z,5.43
2023-03-29T18:05:20.746Z,5.90
2023-03-29T18:07:47.230Z,5.17
2023-03-29T18:10:13.728Z,6.03
2023-03-29T18:12:40.215Z,5.73
2023-03-29T18:15:07.374Z,6.13
2023-03-29T18:17:35.728Z,5.70
2023-03-29T18:20:02.373Z,5.90
2023-03-29T18:22:29.110Z,5.87
2023-03-29T18:24:56.365Z,5.47
2023-03-29T18:27:22.869Z,4.53
2023-03-29T18:29:49.320Z,4.87
2023-03-29T18:32:17.071Z,5.17
2023-03-29T18:34:43.546Z,4.90
2023-03-29T18:37:14.559Z,5.50
2023-03-29T18:39:42.020Z,4.70
2023-03-29T18:42:11.623Z,4.03
2023-03-29T18:44:40.230Z,4.00
2023-03-29T18:47:07.518Z,4.60
2023-03-29T18:49:34.354Z,4.97
2023-03-29T18:52:02.073Z,4.63
2023-03-29T18:54:29.094Z,4.40
2023-03-29T18:56:57.827Z,4.17
2023-03-29T18:59:25.545Z,4.37
2023-03-29T19:01:52.291Z,4.30
2023-03-29T19:04:20.039Z,3.93
2023-03-29T19:06:47.443Z,5.40
2023-03-29T19:09:14.012Z,4.23
2023-03-29T19:11:40.453Z,5.13
2023-03-29T19:14:09.074Z,4.77
2023-03-29T19:16:36.228Z,5.03
2023-03-29T19:19:02.760Z,5.07
2023-03-29T19:21:31.611Z,4.60
2023-03-29T19:24:00.720Z,4.43
2023-03-29T19:26:29.497Z,5.20
2023-03-29T19:28:56.255Z,5.10
2023-03-29T19:31:23.000Z,4.80
2023-03-29T19:33:49.550Z,4.80
2023-03-29T19:36:16.187Z,4.50
2023-03-29T19:38:44.138Z,4.43
2023-03-29T19:41:11.516Z,4.07
2023-03-29T19:43:38.097Z,3.97
2023-03-29T19:46:08.002Z,4.17
2023-03-29T19:48:34.552Z,4.33
2023-03-29T19:51:03.028Z,4.23
2023-03-29T19:53:30.648Z,4.50
2023-03-29T19:55:58.388Z,5.20
2023-03-29T19:58:26.611Z,4.97
2023-03-29T20:00:57.951Z,4.57
2023-03-29T20:03:28.487Z,4.80
2023-03-29T20:05:56.480Z,4.50
2023-03-29T20:08:24.846Z,3.77
2023-03-29T20:11:03.810Z,4.80
2023-03-29T20:13:38.162Z,4.50
2023-03-29T20:16:08.123Z,3.97
2023-03-29T20:18:34.794Z,4.40
2023-03-29T20:21:02.028Z,4.47
2023-03-29T20:23:28.666Z,4.33
2023-03-29T20:25:55.367Z,4.70
2023-03-29T20:28:21.854Z,4.13
2023-03-29T20:30:51.182Z,4.30
2023-03-29T20:33:19.168Z,3.80
2023-03-29T20:35:46.263Z,4.40
2023-03-29T20:38:13.666Z,4.30
2023-03-29T20:40:43.045Z,4.77
2023-03-29T20:43:18.854Z,4.40
2023-03-29T20:45:53.447Z,4.33
2023-03-29T20:48:23.314Z,4.87
2023-03-29T20:50:50.638Z,4.93
2023-03-29T20:53:18.240Z,4.60
2023-03-29T20:55:48.314Z,4.50
2023-03-29T20:58:15.748Z,5.07
2023-03-29T21:00:42.871Z,4.87
2023-03-29T21:03:09.568Z,4.83
2023-03-29T21:05:36.247Z,4.70
2023-03-29T21:08:04.346Z,4.03
2023-03-29T21:10:31.360Z,4.10
2023-03-29T21:13:02.257Z,4.70
2023-03-29T21:15:30.543Z,4.60
2023-03-29T21:17:57.507Z,5.20
2023-03-29T21:20:24.198Z,5.30
2023-03-29T21:22:51.008Z,4.77
2023-03-29T21:25:17.628Z,4.43
2023-03-29T21:27:44.176Z,4.13
2023-03-29T21:30:11.193Z,4.27
2023-03-29T21:32:39.661Z,4.70
2023-03-29T21:35:06.891Z,4.27
2023-03-29T21:37:33.310Z,4.23
2023-03-29T21:40:00.211Z,4.73
2023-03-29T21:42:26.672Z,4.60
2023-03-29T21:44:53.210Z,4.30
2023-03-29T21:47:21.733Z,4.50
2023-03-29T21:49:48.271Z,4.57
2023-03-29T21:52:14.778Z,4.43
2023-03-29T21:54:42.105Z,5.00
2023-03-29T21:57:08.669Z,4.33
2023-03-29T21:59:35.228Z,3.77
2023-03-29T22:02:02.304Z,5.33
2023-03-29T22:04:36.510Z,4.97
2023-03-29T22:07:05.169Z,4.57
2023-03-29T22:09:35.048Z,4.30
2023-03-29T22:12:02.534Z,4.30
2023-03-29T22:14:31.140Z,5.20
2023-03-29T22:16:57.625Z,4.53
2023-03-29T22:19:24.180Z,4.63
2023-03-29T22:21:51.532Z,4.93
2023-03-29T22:24:18.132Z,4.30
2023-03-29T22:26:48.129Z,4.60
2023-03-29T22:29:14.624Z,4.80
2023-03-29T22:31:41.163Z,4.00
2023-03-29T22:34:07.744Z,4.50
2023-03-29T22:36:36.234Z,4.57
2023-03-29T22:39:02.728Z,4.80
2023-03-29T22:41:29.472Z,5.13
2023-03-29T22:43:58.170Z,4.37
2023-03-29T22:46:26.395Z,4.47
2023-03-29T22:48:53.163Z,4.43
2023-03-29T22:51:20.065Z,4.43
2023-03-29T22:53:49.474Z,4.43
2023-03-29T22:56:16.557Z,4.80
2023-03-29T22:58:43.576Z,5.50
2023-03-29T23:01:10.783Z,4.53
2023-03-29T23:03:39.181Z,3.87
2023-03-29T23:06:06.741Z,4.27
2023-03-29T23:08:34.266Z,4.67
2023-03-29T23:11:02.528Z,4.43
2023-03-29T23:13:29.579Z,4.80
2023-03-29T23:15:59.847Z,4.90
2023-03-29T23:18:28.435Z,4.60
2023-03-29T23:20:56.733Z,5.37
2023-03-29T23:23:24.864Z,4.90
2023-03-29T23:25:53.087Z,4.50
2023-03-29T23:28:23.584Z,4.80
2023-03-29T23:30:58.223Z,5.00
2023-03-29T23:33:25.809Z,5.13
2023-03-29T23:35:53.042Z,4.63
2023-03-29T23:38:19.857Z,4.60
2023-03-29T23:40:54.189Z,4.47
2023-03-29T23:43:21.141Z,4.30
2023-03-29T23:45:47.651Z,4.40
2023-03-29T23:48:14.198Z,4.57
2023-03-29T23:50:40.629Z,4.60
2023-03-29T23:53:07.059Z,4.87
2023-03-29T23:55:34.203Z,4.60
2023-03-29T23:58:00.851Z,3.87
